Cameron Corners (448, 449, 6923) Station Data

Red Flag Warning: No
Fire Weather Zone: 258
SDGE Region: Mountain Empire
Lat/Lon: 32.646/-116.497

Observations

Time Wind Speed/Gust Temp(F) RH Fuel Moist Fuel Temp(F) Dewpt(F) Tmax(F) Tmin(F) Accum Precip 10-min Precip SL Press(mb)
6/22 5:00am 3 4 G 8 69° 22% - - 28° 74.6° 67.6° - - 866.0
6/22 4:50am 351 4 G 7 69° 22% - - 28° 74.6° 67.6° - - 866.0
6/22 4:40am 2 5 G 9 68° 23% - - 29° 74.6° 67.6° - - 866.0
6/22 4:30am 358 5 G 8 69° 24% - - 30° 74.6° 67.6° - - 867.0
6/22 4:20am 353 5 G 8 69° 24% - - 31° 74.6° 67.6° - - 867.0
6/22 4:10am 354 5 G 7 69° 24% - - 31° 74.6° 67.6° - - 867.0
6/22 4:00am 348 4 G 7 69° 24% - - 31° 74.6° 67.6° - - 867.0
6/22 3:50am 352 4 G 8 69° 26% - - 33° 74.6° 67.6° - - 868.0
6/22 3:40am 351 5 G 8 70° 27% - - 35° 74.6° 67.6° - - 868.0
6/22 3:30am 355 5 G 8 69° 26% - - 33° 74.6° 67.6° - - 868.0
6/22 3:20am 359 5 G 8 70° 24% - - 32° 74.6° 67.6° - - 867.0
6/22 3:10am 355 4 G 7 70° 26% - - 34° 74.6° 67.6° - - 868.0
6/22 3:00am 351 3 G 5 69° 28% - - 34° 74.6° 67.6° - - 868.0
6/22 2:50am 353 4 G 5 69° 29% - - 35° 74.6° 67.6° - - 869.0
6/22 2:40am 33 2 G 4 69° 30% - - 36° 74.6° 67.6° - - 869.0
6/22 2:30am 0 3 G 5 70° 28% - - 36° 74.6° 67.6° - - 869.0
6/22 2:20am 352 4 G 6 71° 28% - - 36° 74.6° 67.6° - - 869.0
6/22 2:10am 350 4 G 6 70° 29% - - 36° 74.6° 67.6° - - 869.0
6/22 2:00am 346 4 G 6 70° 28% - - 35° 74.6° 67.6° - - 869.0
6/22 1:50am 335 4 G 5 69° 30% - - 36° 74.6° 67.6° - - 869.0
6/22 1:40am 350 3 G 6 68° 32% - - 37° 74.6° 67.6° - - 870.0
6/22 1:30am 8 2 G 4 69° 31% - - 38° 74.6° 68.8° - - 870.0
6/22 1:20am 9 1 G 3 72° 27% - - 37° 74.6° 70.1° - - 869.0
6/22 1:10am 357 4 G 7 73° 26% - - 36° 74.6° 70.1° - - 869.0
6/22 1:00am 349 2 G 4 71° 29% - - 37° 73° 70.1° - - 870.0
6/22 12:50am 347 3 G 7 71° 30% - - 38° 73° 70.1° - - 870.0
6/22 12:40am 294 1 G 3 70° 33% - - 40° 73° 70.1° - - 871.0
6/22 12:30am 93 1 G 3 71° 33% - - 40° 73° 70.6° - - 871.0
6/22 12:20am 8 3 G 6 72° 31% - - 40° 73° 72° - - 871.0
6/22 12:10am 349 5 G 7 73° 32% - - 41° 73° 72.3° - - 871.0
6/22 12:00am 349 5 G 7 73° 31% - - 41° 100.8° 65.8° - - 871.0
6/21 11:50pm 356 5 G 7 73° 31% - - 41° 100.8° 65.8° - - 871.0
6/21 11:40pm 355 4 G 6 74° 31% - - 42° 100.8° 65.8° - - 871.0
6/21 11:30pm 352 4 G 6 74° 31% - - 42° 100.8° 65.8° - - 871.0
6/21 11:20pm 360 4 G 7 74° 32% - - 43° 100.8° 65.8° - - 872.0
6/21 11:10pm 358 4 G 7 75° 34% - - 44° 100.8° 65.8° - - 873.0
6/21 11:00pm 356 4 G 7 74° 35% - - 45° 100.8° 65.8° - - 873.0
6/21 10:50pm 337 4 G 5 74° 37% - - 46° 100.8° 65.8° - - 874.0
6/21 10:40pm 351 4 G 7 75° 36% - - 46° 100.8° 65.8° - - 874.0
6/21 10:30pm 359 3 G 5 74° 38% - - 47° 100.8° 65.8° - - 874.0
6/21 10:20pm 344 1 G 3 74° 39% - - 48° 100.8° 65.8° - - 875.0
6/21 10:10pm 356 2 G 4 76° 37% - - 48° 100.8° 65.8° - - 874.0
6/21 10:00pm 351 3 G 5 76° 36% - - 47° 100.8° 65.8° - - 874.0
6/21 9:50pm 4 3 G 4 76° 36% - - 47° 100.8° 65.8° - - 874.0
6/21 9:40pm 2 3 G 5 76° 36% - - 47° 100.8° 65.8° - - 874.0
6/21 9:30pm 3 4 G 5 76° 36% - - 47° 100.8° 65.8° - - 874.0
6/21 9:20pm 3 3 G 5 77° 35% - - 47° 100.8° 65.8° - - 874.0
6/21 9:10pm 355 3 G 4 77° 35% - - 47° 100.8° 65.8° - - 874.0
6/21 9:00pm 350 2 G 4 79° 33% - - 48° 100.8° 65.8° - - 874.0
6/21 8:50pm 339 3 G 4 80° 33% - - 48° 100.8° 65.8° - - 874.0
6/21 8:40pm 321 0 G 2 81° 32% - - 48° 100.8° 65.8° - - 874.0
6/21 8:30pm 294 1 G 2 82° 31% - - 49° 100.8° 65.8° - - 874.0
6/21 8:20pm 328 0 G 2 82° 31% - - 48° 100.8° 65.8° - - 874.0
6/21 8:10pm 308 1 G 3 83° 30% - - 49° 100.8° 65.8° - - 874.0
6/21 8:00pm 150 2 G 4 84° 29% - - 48° 100.8° 65.8° - - 874.0
6/21 7:50pm 172 4 G 9 86° 28% - - 49° 100.8° 65.8° - - 875.0
6/21 7:40pm 276 6 G 9 87° 28% - - 50° 100.8° 65.8° - - 875.0
6/21 7:30pm 269 3 G 8 88° 27% - - 50° 100.8° 65.8° - - 875.0
6/21 7:20pm 205 2 G 6 89° 26% - - 50° 100.8° 65.8° - - 875.0
6/21 7:10pm 278 6 G 12 89° 27% - - 51° 100.8° 65.8° - - 876.0
6/21 7:00pm 296 10 G 15 90° 26% - - 51° 100.8° 65.8° - - 876.0
6/21 6:50pm 297 11 G 15 91° 25% - - 50° 100.8° 65.8° - - 876.0
6/21 6:40pm 293 11 G 15 92° 24% - - 49° 100.8° 65.8° - - 876.0
6/21 6:30pm 289 11 G 14 92° 22% - - 48° 100.8° 65.8° - - 875.0
6/21 6:20pm 289 10 G 13 93° 20% - - 46° 100.8° 65.8° - - 875.0
6/21 6:10pm 288 9 G 13 94° 18% - - 44° 100.8° 65.8° - - 875.0
6/21 6:00pm 290 10 G 13 94° 16% - - 42° 100.8° 65.8° - - 875.0
6/21 5:50pm 289 8 G 12 95° 15% - - 40° 100.8° 65.8° - - 875.0
6/21 5:40pm 279 8 G 12 96° 15% - - 40° 100.8° 65.8° - - 875.0
6/21 5:30pm 289 9 G 13 96° 14% - - 39° 100.8° 65.8° - - 875.0
6/21 5:20pm 301 10 G 14 96° 14% - - 39° 100.8° 65.8° - - 875.0
6/21 5:10pm 294 10 G 14 97° 12% - - 36° 100.8° 65.8° - - 875.0
6/21 5:00pm 280 8 G 14 98° 10% - - 33° 100.8° 65.8° - - 874.0
6/21 4:50pm 292 9 G 14 98° 11% - - 34° 100.8° 65.8° - - 875.0
6/21 4:40pm 301 9 G 15 97° 12% - - 36° 100.8° 65.8° - - 875.0
6/21 4:30pm 307 9 G 15 98° 11% - - 35° 100.8° 65.8° - - 875.0
6/21 4:20pm 286 11 G 15 98° 11% - - 35° 100.8° 65.8° - - 875.0
6/21 4:10pm 293 10 G 17 99° 10% - - 33° 100.8° 65.8° - - 875.0
6/21 4:00pm 308 9 G 15 98° 9% - - 30° 100.8° 65.8° - - 874.0
6/21 3:50pm 292 10 G 20 99° 9% - - 29° 100.8° 65.8° - - 874.0
6/21 3:40pm 272 9 G 17 99° 10% - - 32° 100.8° 65.8° - - 875.0
6/21 3:30pm 278 10 G 18 99° 9% - - 31° 100.8° 65.8° - - 875.0
6/21 3:20pm 273 9 G 17 99° 9% - - 30° 100.8° 65.8° - - 875.0
6/21 3:10pm 291 9 G 14 99° 9% - - 30° 100.8° 65.8° - - 875.0
6/21 3:00pm 269 10 G 18 100° 9% - - 30° 100.8° 65.8° - - 875.0
6/21 2:50pm 276 7 G 13 100° 9% - - 31° 100.8° 65.8° - - 875.0
6/21 2:40pm 275 9 G 15 100° 9% - - 31° 100.8° 65.8° - - 874.0
6/21 2:30pm 281 9 G 17 100° 9% - - 30° 100.8° 65.8° - - 874.0
6/21 2:20pm 278 8 G 15 100° 9% - - 31° 100.8° 65.8° - - 874.0
6/21 2:10pm 288 9 G 14 99° 9% - - 30° 100.8° 65.8° - - 874.0
6/21 2:00pm 281 10 G 17 100° 9% - - 31° 100.8° 65.8° - - 874.0
6/21 1:50pm 252 10 G 17 100° 9% - - 31° 100.8° 65.8° - - 874.0
6/21 1:40pm 262 9 G 20 99° 9% - - 29° 100.8° 65.8° - - 874.0
6/21 1:30pm 243 9 G 15 99° 9% - - 30° 100.8° 65.8° - - 874.0
6/21 1:20pm 261 8 G 12 99° 8% - - 29° 100.8° 65.8° - - 874.0
6/21 1:10pm 267 8 G 14 99° 8% - - 27° 100.8° 65.8° - - 873.0
6/21 1:00pm 251 9 G 13 99° 8% - - 28° 100.8° 65.8° - - 873.0
6/21 12:50pm 249 8 G 15 99° 9% - - 30° 100.8° 65.8° - - 873.0
6/21 12:40pm 276 8 G 16 100° 10% - - 32° 100.8° 65.8° - - 873.0
6/21 12:30pm 276 8 G 20 100° 8% - - 29° 100.8° 65.8° - - 873.0
6/21 12:20pm 286 7 G 16 100° 8% - - 27° 100.7° 65.8° - - 873.0
6/21 12:10pm 283 7 G 15 100° 7% - - 24° 100.7° 65.8° - - 872.0
6/21 12:00pm 317 6 G 12 99° 7% - - 26° 100.2° 65.8° - - 872.0
6/21 11:50am 299 6 G 13 99° 8% - - 26° 99.3° 65.8° - - 872.0
6/21 11:40am 280 7 G 13 98° 8% - - 27° 99.2° 65.8° - - 872.0
6/21 11:30am 293 8 G 13 98° 8% - - 28° 99.2° 65.8° - - 872.0
6/21 11:20am 289 6 G 11 98° 9% - - 29° 99.1° 65.8° - - 872.0
6/21 11:10am 288 8 G 12 97° 9% - - 29° 98.3° 65.8° - - 871.0
6/21 11:00am 291 9 G 12 97° 8% - - 26° 97.5° 65.8° - - 871.0
6/21 10:50am 288 8 G 12 97° 8% - - 27° 97.5° 65.8° - - 871.0
6/21 10:40am 295 8 G 11 96° 8% - - 27° 97.4° 65.8° - - 870.0
6/21 10:30am 291 8 G 11 96° 9% - - 28° 97.4° 65.8° - - 870.0
6/21 10:20am 289 5 G 9 96° 10% - - 29° 97.4° 65.8° - - 870.0
6/21 10:10am 228 3 G 9 97° 9% - - 30° 97.4° 65.8° - - 870.0
6/21 10:00am 189 2 G 5 95° 10% - - 31° 95.9° 65.8° - - 870.0
6/21 9:50am 93 2 G 5 94° 11% - - 32° 94.6° 65.8° - - 870.0
6/21 9:40am 136 2 G 4 94° 11% - - 32° 94.6° 65.8° - - 869.0
6/21 9:30am 106 1 G 3 92° 12% - - 32° 94.1° 65.8° - - 869.0
6/21 9:20am 113 2 G 4 91° 12% - - 32° 91.1° 65.8° - - 869.0
6/21 9:10am 107 2 G 4 89° 13% - - 33° 90.2° 65.8° - - 868.0
6/21 9:00am 114 2 G 4 88° 14% - - 33° 89° 65.8° - - 868.0
6/21 8:50am 122 2 G 3 87° 14% - - 33° 87.9° 65.8° - - 868.0
6/21 8:40am 102 1 G 3 87° 16% - - 35° 87.6° 65.8° - - 869.0
6/21 8:30am 123 1 G 2 84° 19% - - 37° 85.3° 65.8° - - 869.0
6/21 8:20am 134 2 G 3 83° 21% - - 39° 83.2° 65.8° - - 869.0
6/21 8:10am 130 2 G 2 82° 24% - - 41° 82.6° 65.8° - - 870.0
6/21 8:00am 141 2 G 3 82° 24% - - 42° 82.2° 65.8° - - 870.0
6/21 7:50am 155 1 G 2 82° 22% - - 39° 82.2° 65.8° - - 869.0
6/21 7:40am 1 0 G 1 79° 23% - - 39° 80.9° 65.8° - - 869.0
6/21 7:30am 349 1 G 2 77° 26% - - 39° 78.1° 65.8° - - 869.0
6/21 7:20am 346 1 G 2 76° 25% - - 38° 76.4° 65.8° - - 869.0
6/21 7:10am 12 2 G 3 75° 24% - - 35° 75.9° 65.8° - - 868.0
6/21 7:00am 359 2 G 4 73° 24% - - 34° 75.4° 65.8° - - 868.0
6/21 6:50am 352 2 G 3 72° 25% - - 35° 75.4° 65.8° - - 868.0
6/21 6:40am 14 1 G 1 72° 27% - - 36° 75.4° 65.8° - - 869.0
6/21 6:30am 13 3 G 5 69° 27% - - 34° 75.4° 65.8° - - 868.0
6/21 6:20am 4 4 G 6 69° 26% - - 33° 75.4° 65.8° - - 868.0
6/21 6:10am 8 4 G 6 68° 29% - - 34° 75.4° 65.8° - - 868.0
6/21 6:00am 357 5 G 6 69° 26% - - 33° 75.4° 65.8° - - 868.0
6/21 5:50am 3 5 G 8 70° 26% - - 33° 75.4° 65.8° - - 868.0
6/21 5:40am 2 5 G 7 70° 27% - - 35° 75.4° 65.8° - - 869.0
6/21 5:30am 2 5 G 6 70° 28% - - 35° 75.4° 65.8° - - 869.0
6/21 5:20am 5 5 G 6 69° 29% - - 35° 75.4° 65.8° - - 869.0
6/21 5:10am 355 4 G 5 69° 30% - - 36° 75.4° 65.8° - - 869.0
6/21 5:00am 3 3 G 4 69° 31% - - 37° 75.4° 65.8° - - 870.0
6/21 4:50am 355 3 G 5 68° 34% - - 38° 75.4° 65.8° - - 870.0
6/21 4:40am 330 2 G 4 67° 35% - - 38° 75.4° 65.8° - - 871.0
6/21 4:30am 103 2 G 5 69° 32% - - 38° 75.4° 67.2° - - 870.0
6/21 4:20am 319 2 G 4 70° 31% - - 37° 75.4° 67.4° - - 870.0
6/21 4:10am 326 3 G 6 70° 30% - - 37° 75.4° 67.4° - - 870.0
6/21 4:00am 356 4 G 6 71° 29% - - 37° 75.4° 67.4° - - 869.0
6/21 3:50am 356 4 G 5 70° 29% - - 37° 75.4° 67.4° - - 869.0
6/21 3:40am 346 3 G 4 68° 32% - - 37° 75.4° 67.4° - - 870.0
6/21 3:30am 351 4 G 5 70° 30% - - 37° 75.4° 68° - - 869.0
6/21 3:20am 4 4 G 6 70° 30% - - 37° 75.4° 68.7° - - 870.0
6/21 3:10am 1 4 G 6 71° 29% - - 37° 75.4° 68.7° - - 869.0
6/21 3:00am 358 4 G 6 71° 29% - - 37° 75.4° 68.7° - - 870.0
6/21 2:50am 3 3 G 5 71° 29% - - 37° 75.4° 68.7° - - 870.0
6/21 2:40am 2 3 G 4 71° 29% - - 37° 75.4° 68.7° - - 870.0
6/21 2:30am 359 4 G 5 70° 29% - - 37° 75.4° 68.7° - - 869.0
6/21 2:20am 2 4 G 6 71° 28% - - 36° 75.4° 68.7° - - 869.0
6/21 2:10am 3 4 G 6 70° 29% - - 36° 75.4° 68.7° - - 869.0
6/21 2:00am 5 5 G 6 70° 28% - - 36° 75.4° 68.7° - - 869.0
6/21 1:50am 2 4 G 5 71° 26% - - 35° 75.4° 68.7° - - 869.0
6/21 1:40am 360 4 G 6 71° 26% - - 35° 75.4° 68.7° - - 869.0
6/21 1:30am 0 4 G 5 70° 27% - - 35° 75.4° 68.7° - - 869.0
6/21 1:20am 5 4 G 6 70° 28% - - 35° 75.4° 68.7° - - 869.0
6/21 1:10am 355 3 G 5 70° 28% - - 36° 75.4° 68.7° - - 869.0
6/21 1:00am 350 3 G 5 70° 36% - - 42° 75.4° 68.7° - - 872.0
6/21 12:50am 343 3 G 5 69° 41% - - 44° 75.4° 68.7° - - 874.0
6/21 12:40am 272 1 G 3 70° 42% - - 46° 75.4° 68.8° - - 874.0
6/21 12:30am 129 1 G 4 72° 37% - - 44° 75.4° 70.3° - - 873.0
6/21 12:20am 112 2 G 4 74° 33% - - 43° 75.4° 70.3° - - 871.0
6/21 12:10am 26 2 G 5 72° 26% - - 35° 74.8° 70.3° - - 869.0
6/21 12:00am 360 3 G 5 71° 27% - - 35° 100.4° 62.9° - - 869.0
6/20 11:50pm 5 4 G 5 71° 28% - - 37° 100.4° 62.9° - - 870.0
6/20 11:40pm 356 3 G 5 74° 27% - - 38° 100.4° 62.9° - - 870.0
6/20 11:30pm 3 3 G 5 74° 30% - - 41° 100.4° 62.9° - - 871.0
6/20 11:20pm 357 3 G 5 73° 30% - - 40° 100.4° 62.9° - - 871.0
6/20 11:10pm 4 4 G 5 73° 31% - - 41° 100.4° 62.9° - - 871.0
6/20 11:00pm 5 5 G 7 74° 31% - - 41° 100.4° 62.9° - - 871.0
6/20 10:50pm 3 5 G 6 74° 32% - - 42° 100.4° 62.9° - - 872.0
6/20 10:40pm 2 5 G 6 73° 34% - - 43° 100.4° 62.9° - - 872.0
6/20 10:30pm 2 4 G 6 74° 35% - - 44° 100.4° 62.9° - - 873.0
6/20 10:20pm 359 3 G 5 75° 36% - - 46° 100.4° 62.9° - - 873.0
6/20 10:10pm 6 2 G 5 76° 35% - - 47° 100.4° 62.9° - - 873.0
6/20 10:00pm 3 3 G 4 75° 36% - - 46° 100.4° 62.9° - - 874.0
6/20 9:50pm 17 2 G 3 76° 38% - - 48° 100.4° 62.9° - - 875.0
6/20 9:40pm 350 1 G 3 76° 38% - - 49° 100.4° 62.9° - - 875.0
6/20 9:30pm 2 2 G 4 79° 36% - - 50° 100.4° 62.9° - - 875.0
6/20 9:20pm 359 1 G 5 79° 37% - - 51° 100.4° 62.9° - - 875.0
6/20 9:10pm 132 1 G 2 80° 36% - - 50° 100.4° 62.9° - - 875.0
6/20 9:00pm 347 3 G 8 81° 35% - - 51° 100.4° 62.9° - - 875.0
6/20 8:50pm 303 6 G 9 82° 34% - - 51° 100.4° 62.9° - - 875.0
6/20 8:40pm 301 7 G 11 82° 34% - - 51° 100.4° 62.9° - - 875.0
6/20 8:30pm 304 8 G 11 83° 33% - - 51° 100.4° 62.9° - - 875.0
6/20 8:20pm 305 8 G 11 83° 33% - - 51° 100.4° 62.9° - - 875.0
6/20 8:10pm 304 8 G 11 84° 32% - - 51° 100.4° 62.9° - - 875.0
6/20 8:00pm 292 6 G 9 85° 31% - - 51° 100.4° 62.9° - - 875.0
6/20 7:50pm 290 7 G 10 86° 30% - - 51° 100.4° 62.9° - - 875.0
6/20 7:40pm 277 5 G 9 87° 29% - - 51° 100.4° 62.9° - - 875.0
6/20 7:30pm 294 8 G 12 88° 28% - - 51° 100.4° 62.9° - - 875.0
6/20 7:20pm 302 11 G 16 89° 27% - - 51° 100.4° 62.9° - - 876.0
6/20 7:10pm 301 13 G 18 90° 26% - - 50° 100.4° 62.9° - - 875.0
6/20 7:00pm 297 13 G 18 90° 25% - - 50° 100.4° 62.9° - - 875.0
6/20 6:50pm 292 13 G 18 91° 24% - - 49° 100.4° 62.9° - - 875.0
6/20 6:40pm 290 14 G 19 92° 23% - - 49° 100.4° 62.9° - - 875.0
6/20 6:30pm 299 14 G 18 93° 23% - - 49° 100.4° 62.9° - - 875.0
6/20 6:20pm 300 14 G 19 93° 22% - - 49° 100.4° 62.9° - - 875.0
6/20 6:10pm 297 14 G 19 93° 22% - - 48° 100.4° 62.9° - - 876.0
6/20 6:00pm 293 15 G 20 94° 21% - - 48° 100.4° 62.9° - - 876.0